Time;durP1;ratioP1;P1;durP2;ratioP2;P2;SDS_P1;SDS_P2;PMS_P1;PMS_P2;Temp;Humidity;BMP_temperature;BMP_pressure;BME280_temperature;BME280_humidity;BME280_pressure;Samples;Min_cycle;Max_cycle;Signal;HPM_P1;HPM_P2
2022/12/14 19:08:42;;;;;;;;;;;-2.00;90.30;;;;;;5013042;28;19947;-75
2022/12/14 19:11:28;;;;;;;;;;;-2.10;90.30;;;;;;5033747;28;19925;-74
2022/12/14 19:13:54;;;;;;;;;;;-2.10;90.30;;;;;;5032411;28;19936;-75
2022/12/14 19:16:20;;;;;;;;;;;-2.20;90.30;;;;;;5034089;28;19921;-75
2022/12/14 19:18:45;;;;;;;;;;;-2.30;90.30;;;;;;5033226;28;19928;-75
2022/12/14 19:21:11;;;;;;;;;;;-2.30;90.30;;;;;;5050611;28;20728;-74
2022/12/14 19:23:36;;;;;;;;;;;-2.30;90.40;;;;;;5033597;28;19975;-76
2022/12/14 19:26:02;;;;;;;;;;;-2.40;90.40;;;;;;5034362;28;20020;-75
2022/12/14 19:28:28;;;;;;;;;;;-2.40;90.40;;;;;;5035268;28;19925;-75
2022/12/14 19:30:53;;;;;;;;;;;-2.50;90.30;;;;;;5037032;28;19921;-75
2022/12/14 19:33:19;;;;;;;;;;;-2.50;90.40;;;;;;5037320;28;19928;-76
2022/12/14 19:35:44;;;;;;;;;;;-2.50;90.40;;;;;;5034694;28;19921;-75
2022/12/14 19:38:11;;;;;;;;;;;-2.50;90.40;;;;;;5049190;28;19932;-75
2022/12/14 19:40:37;;;;;;;;;;;-2.60;90.40;;;;;;5035928;28;19970;-74
2022/12/14 19:43:02;;;;;;;;;;;-2.60;90.40;;;;;;5034366;28;20019;-75
2022/12/14 19:45:27;;;;;;;;;;;-2.70;90.30;;;;;;5016431;28;19920;-75
2022/12/14 19:47:53;;;;;;;;;;;-2.80;90.40;;;;;;5034714;28;19921;-75
2022/12/14 19:50:18;;;;;;;;;;;-2.80;90.40;;;;;;4979993;28;20035;-75
2022/12/14 19:52:44;;;;;;;;;;;-2.80;90.50;;;;;;5029973;28;19932;-75
2022/12/14 19:55:09;;;;;;;;;;;-2.80;90.50;;;;;;5048815;28;19925;-74
2022/12/14 19:57:35;;;;;;;;;;;-2.90;90.50;;;;;;5033903;28;19929;-75
2022/12/14 20:00:01;;;;;;;;;;;-2.90;90.50;;;;;;5033162;28;19921;-74
2022/12/14 20:02:27;;;;;;;;;;;-2.90;90.50;;;;;;5033556;28;20014;-75
2022/12/14 20:04:52;;;;;;;;;;;-3.00;90.50;;;;;;5034914;28;20550;-75
2022/12/14 20:07:18;;;;;;;;;;;-3.00;90.50;;;;;;5033892;28;19947;-74
2022/12/14 20:09:43;;;;;;;;;;;-3.00;90.50;;;;;;5034127;28;19932;-76
2022/12/14 20:12:10;;;;;;;;;;;-3.00;90.60;;;;;;5035063;28;19960;-74
2022/12/14 20:14:38;;;;;;;;;;;-3.00;90.60;;;;;;5032161;28;19927;-75
2022/12/14 20:17:06;;;;;;;;;;;-3.00;90.60;;;;;;5031716;28;19925;-74
2022/12/14 20:19:31;;;;;;;;;;;-3.00;90.70;;;;;;5035768;28;19921;-76
2022/12/14 20:25:00;;;;;;;;;;;-3.00;90.70;;;;;;5023142;28;19936;-74
2022/12/14 20:27:26;;;;;;;;;;;-3.00;90.70;;;;;;5015422;28;19921;-76
2022/12/14 20:29:51;;;;;;;;;;;-3.00;90.70;;;;;;5034424;28;19921;-76
2022/12/14 20:32:16;;;;;;;;;;;-3.00;90.70;;;;;;5037187;28;19921;-76
2022/12/14 20:35:08;;;;;;;;;;;-3.10;90.70;;;;;;5032605;28;19928;-75
2022/12/14 20:37:34;;;;;;;;;;;-3.00;90.70;;;;;;5031608;28;19925;-74
2022/12/14 20:39:59;;;;;;;;;;;-3.10;90.70;;;;;;5049438;28;19920;-76
2022/12/14 20:42:25;;;;;;;;;;;-3.10;90.70;;;;;;5021663;28;20528;-75
2022/12/14 20:44:50;;;;;;;;;;;-3.10;90.70;;;;;;5011096;28;19928;-75
2022/12/14 20:50:19;;;;;;;;;;;-3.10;90.70;;;;;;5034651;28;19939;-75
2022/12/14 20:55:47;;;;;;;;;;;-3.10;90.70;;;;;;5023311;28;21891;-75
2022/12/14 21:01:16;;;;;;;;;;;-3.20;90.70;;;;;;5015708;28;19931;-74
2022/12/14 21:03:42;;;;;;;;;;;-3.20;90.70;;;;;;5007419;28;19937;-75
2022/12/14 21:06:07;;;;;;;;;;;-3.20;90.70;;;;;;5023072;28;19974;-74
2022/12/14 21:09:00;;;;;;;;;;;-3.20;90.70;;;;;;5035252;28;19944;-75
2022/12/14 21:14:08;;;;;;;;;;;-3.20;90.70;;;;;;5029197;28;19932;-75
2022/12/14 21:16:34;;;;;;;;;;;-3.20;90.70;;;;;;5034802;28;19921;-76
2022/12/14 21:18:59;;;;;;;;;;;-3.20;90.70;;;;;;5017557;28;20455;-76
2022/12/14 21:21:25;;;;;;;;;;;-3.20;90.70;;;;;;5036481;28;19921;-76
2022/12/14 21:23:50;;;;;;;;;;;-3.20;90.70;;;;;;5034016;28;19931;-76
2022/12/14 21:26:16;;;;;;;;;;;-3.30;90.70;;;;;;5034845;28;19947;-75
2022/12/14 21:28:41;;;;;;;;;;;-3.30;90.70;;;;;;5030936;28;19925;-75
2022/12/14 21:31:07;;;;;;;;;;;-3.40;90.70;;;;;;5036921;28;20307;-74
2022/12/14 21:33:34;;;;;;;;;;;-3.30;90.70;;;;;;5047677;28;19998;-76
2022/12/14 21:36:06;;;;;;;;;;;-3.40;90.70;;;;;;5030049;28;20289;-75
2022/12/14 21:38:31;;;;;;;;;;;-3.40;90.70;;;;;;5033408;28;19983;-75
2022/12/14 21:43:41;;;;;;;;;;;-3.60;90.60;;;;;;5029721;28;19993;-75
2022/12/14 21:46:06;;;;;;;;;;;-3.60;90.70;;;;;;5035355;28;19921;-76
2022/12/14 21:48:33;;;;;;;;;;;-3.60;90.70;;;;;;5034736;28;19921;-75
2022/12/14 21:51:01;;;;;;;;;;;-3.60;90.80;;;;;;5048227;28;20571;-75
2022/12/14 21:53:28;;;;;;;;;;;-3.60;90.80;;;;;;5021834;28;20011;-74
2022/12/14 21:58:14;;;;;;;;;;;-3.60;90.80;;;;;;5033533;28;19924;-74
2022/12/14 21:58:38;;;;;;;;;;;-3.70;90.70;;;;;;5049252;28;19947;-74
2022/12/14 22:01:07;;;;;;;;;;;-3.70;90.70;;;;;;5037264;28;19920;-75
2022/12/14 22:03:33;;;;;;;;;;;-3.70;90.70;;;;;;5026467;28;19924;-75
2022/12/14 22:05:58;;;;;;;;;;;-3.70;90.70;;;;;;5030266;28;19936;-75
2022/12/14 22:08:23;;;;;;;;;;;-3.70;90.70;;;;;;5035858;28;19917;-75
2022/12/14 22:10:49;;;;;;;;;;;-3.80;90.70;;;;;;5038151;28;20421;-75
2022/12/14 22:13:15;;;;;;;;;;;-3.80;90.80;;;;;;5030394;28;19929;-75
2022/12/14 22:15:40;;;;;;;;;;;-3.80;90.80;;;;;;5035187;28;19925;-76
2022/12/14 22:18:06;;;;;;;;;;;-3.80;90.80;;;;;;5035777;28;19943;-76
2022/12/14 22:20:31;;;;;;;;;;;-3.80;90.80;;;;;;5017204;28;19943;-75
2022/12/14 22:22:57;;;;;;;;;;;-3.80;90.90;;;;;;5044951;28;20063;-76
2022/12/14 22:25:22;;;;;;;;;;;-3.80;90.80;;;;;;5030952;28;19974;-75
2022/12/14 22:27:48;;;;;;;;;;;-3.80;90.80;;;;;;5039977;28;19965;-75
2022/12/14 22:30:13;;;;;;;;;;;-3.80;90.90;;;;;;5042156;28;19921;-74
2022/12/14 22:32:39;;;;;;;;;;;-3.80;90.90;;;;;;5039617;28;20016;-76
2022/12/14 22:35:04;;;;;;;;;;;-3.80;90.90;;;;;;5019272;28;20022;-74
2022/12/14 22:37:30;;;;;;;;;;;-3.80;90.90;;;;;;5041539;28;19959;-76
2022/12/14 22:39:55;;;;;;;;;;;-3.80;90.90;;;;;;5036540;28;19924;-76
2022/12/14 22:42:21;;;;;;;;;;;-3.80;90.90;;;;;;5051061;28;19967;-75
2022/12/14 22:44:47;;;;;;;;;;;-3.70;90.90;;;;;;5032889;28;19950;-76
2022/12/14 22:47:13;;;;;;;;;;;-3.70;90.90;;;;;;5034310;28;19955;-73
2022/12/14 22:49:38;;;;;;;;;;;-3.70;90.90;;;;;;5038709;28;20370;-75
2022/12/14 22:52:04;;;;;;;;;;;-3.70;90.90;;;;;;5021918;28;19982;-75
2022/12/14 22:54:29;;;;;;;;;;;-3.70;90.90;;;;;;5038578;28;19927;-75
2022/12/14 22:56:56;;;;;;;;;;;-3.70;90.90;;;;;;5020520;28;19928;-75
2022/12/14 22:59:29;;;;;;;;;;;-3.70;90.90;;;;;;5039823;28;19964;-76
2022/12/14 23:01:55;;;;;;;;;;;-3.70;90.90;;;;;;5037948;28;20387;-75
2022/12/14 23:04:20;;;;;;;;;;;-3.60;90.90;;;;;;5033819;28;19927;-76
2022/12/14 23:06:45;;;;;;;;;;;-3.70;90.90;;;;;;5036677;28;19925;-74
